Time;durP1;ratioP1;P1;durP2;ratioP2;P2;SDS_P1;SDS_P2;PMS_P1;PMS_P2;Temp;Humidity;BMP_temperature;BMP_pressure;BME280_temperature;BME280_humidity;BME280_pressure;Samples;Min_cycle;Max_cycle;Signal;HPM_P1;HPM_P2
2021/01/08 00:01:21;;;;;;;9.90;7.70;;;8.40;55.10;;;;;;5053340;28;20195;-41
2021/01/08 00:03:46;;;;;;;9.97;6.93;;;8.50;55.10;;;;;;5052714;28;20247;-41
2021/01/08 00:06:12;;;;;;;9.80;7.20;;;8.50;54.90;;;;;;5053198;28;20275;-41
2021/01/08 00:08:38;;;;;;;8.60;6.80;;;8.50;55.00;;;;;;5052637;28;20236;-41
2021/01/08 00:11:03;;;;;;;10.50;7.87;;;8.50;54.90;;;;;;5052528;28;20188;-41
2021/01/08 00:13:29;;;;;;;10.23;7.27;;;8.40;54.90;;;;;;5052637;28;20263;-41
2021/01/08 00:15:54;;;;;;;10.60;7.87;;;8.40;55.50;;;;;;5053102;28;20181;-41
2021/01/08 00:18:20;;;;;;;11.13;6.90;;;8.40;55.40;;;;;;5050395;28;20299;-41
2021/01/08 00:20:45;;;;;;;10.10;7.60;;;8.40;55.30;;;;;;5052820;28;20196;-41
2021/01/08 00:23:11;;;;;;;8.43;6.70;;;8.40;55.20;;;;;;5052206;28;20250;-41
2021/01/08 00:25:38;;;;;;;9.77;7.50;;;8.40;55.30;;;;;;5053349;28;20188;-41
2021/01/08 00:28:03;;;;;;;8.83;7.00;;;8.40;55.30;;;;;;5047977;28;20272;-41
2021/01/08 00:30:31;;;;;;;11.83;8.27;;;8.40;55.40;;;;;;5053092;28;20546;-41
2021/01/08 00:32:57;;;;;;;8.30;7.43;;;8.40;55.30;;;;;;5050043;28;20203;-41
2021/01/08 00:35:22;;;;;;;8.50;7.27;;;8.40;55.50;;;;;;5053243;28;20423;-41
2021/01/08 00:37:48;;;;;;;11.60;7.77;;;8.40;55.70;;;;;;5051968;28;20262;-41
2021/01/08 00:40:14;;;;;;;11.27;8.23;;;8.40;55.90;;;;;;5052547;28;21154;-41
2021/01/08 00:42:39;;;;;;;9.70;6.60;;;8.40;55.70;;;;;;5051797;28;20201;-42
2021/01/08 00:45:07;;;;;;;10.83;8.50;;;8.40;55.70;;;;;;5052484;28;20185;-41
2021/01/08 00:47:33;;;;;;;11.90;7.57;;;8.40;55.70;;;;;;5047239;28;20208;-41
2021/01/08 00:49:59;;;;;;;9.20;7.40;;;8.40;55.80;;;;;;5052172;28;20446;-41
2021/01/08 00:52:24;;;;;;;13.37;8.70;;;8.40;55.80;;;;;;5052696;28;20589;-41
2021/01/08 00:54:50;;;;;;;9.20;7.40;;;8.30;55.70;;;;;;5052600;28;20595;-41
2021/01/08 00:57:15;;;;;;;12.03;8.63;;;8.40;55.90;;;;;;5051547;28;20728;-41
2021/01/08 00:59:41;;;;;;;10.60;7.80;;;8.30;55.80;;;;;;5051753;28;20239;-41
2021/01/08 01:02:07;;;;;;;10.03;7.60;;;8.30;55.90;;;;;;5051871;28;20196;-41
2021/01/08 01:04:32;;;;;;;9.90;8.30;;;8.30;55.90;;;;;;5052069;28;20224;-41
2021/01/08 01:06:58;;;;;;;10.23;7.87;;;8.40;56.10;;;;;;5051850;28;20223;-41
2021/01/08 01:09:23;;;;;;;10.97;8.13;;;8.30;56.00;;;;;;5052059;28;20242;-41
2021/01/08 01:11:49;;;;;;;9.47;7.90;;;8.40;56.10;;;;;;5051101;28;20234;-41
2021/01/08 01:14:14;;;;;;;12.87;8.70;;;8.40;56.00;;;;;;5049272;28;20216;-41
2021/01/08 01:16:40;;;;;;;12.07;8.50;;;8.40;55.90;;;;;;5052248;28;20219;-41
2021/01/08 01:19:05;;;;;;;10.17;7.50;;;8.40;55.90;;;;;;5051443;28;20208;-41
2021/01/08 01:21:31;;;;;;;10.10;7.47;;;8.40;55.90;;;;;;5051701;28;20200;-41
2021/01/08 01:23:57;;;;;;;11.60;7.20;;;8.40;55.60;;;;;;5050572;28;20226;-41
2021/01/08 01:26:23;;;;;;;10.80;8.00;;;8.40;55.70;;;;;;5052012;28;20189;-41
2021/01/08 01:28:48;;;;;;;13.90;8.50;;;8.40;55.70;;;;;;5050097;28;20215;-41
2021/01/08 01:31:14;;;;;;;9.53;7.60;;;8.40;56.00;;;;;;5052283;28;21080;-41
2021/01/08 01:33:39;;;;;;;10.77;7.60;;;8.40;56.10;;;;;;5051000;28;20652;-41
2021/01/08 01:36:09;;;;;;;9.40;6.80;;;8.40;56.20;;;;;;5051634;28;20189;-41
2021/01/08 01:38:36;;;;;;;10.50;7.87;;;8.40;56.10;;;;;;5047915;28;20266;-41
2021/01/08 01:41:03;;;;;;;9.00;6.60;;;8.40;56.00;;;;;;5051112;28;20454;-41
2021/01/08 01:43:28;;;;;;;11.50;7.57;;;8.40;56.10;;;;;;5049913;28;20439;-41
2021/01/08 01:45:54;;;;;;;9.47;6.80;;;8.30;56.10;;;;;;5045747;28;20431;-41
2021/01/08 01:48:20;;;;;;;11.07;7.90;;;8.30;56.10;;;;;;5050959;28;20196;-41
2021/01/08 01:50:46;;;;;;;9.90;7.77;;;8.30;56.10;;;;;;5051565;28;20189;-41
2021/01/08 01:53:12;;;;;;;10.67;7.97;;;8.30;56.20;;;;;;5049896;28;20200;-41
2021/01/08 01:55:39;;;;;;;8.97;7.47;;;8.30;56.00;;;;;;5051326;28;20419;-41
2021/01/08 01:58:05;;;;;;;8.83;7.37;;;8.30;56.00;;;;;;5049705;28;20628;-41
2021/01/08 02:00:30;;;;;;;10.10;7.33;;;8.30;56.00;;;;;;5051382;28;20550;-41
2021/01/08 02:03:01;;;;;;;11.50;8.27;;;8.30;55.80;;;;;;5049662;28;20590;-41
2021/01/08 02:05:29;;;;;;;9.63;7.73;;;8.20;55.80;;;;;;5051037;28;20539;-41
2021/01/08 02:08:13;;;;;;;9.70;6.70;;;8.10;56.00;;;;;;5050907;28;20427;-41
2021/01/08 02:11:06;;;;;;;11.63;7.30;;;8.20;56.10;;;;;;5049815;28;20439;-41
2021/01/08 02:13:46;;;;;;;10.27;7.53;;;8.20;56.30;;;;;;5043257;28;20448;-44
2021/01/08 02:16:13;;;;;;;8.67;7.70;;;8.10;56.20;;;;;;5050721;28;20465;-41
2021/01/08 02:18:41;;;;;;;11.00;7.50;;;8.20;56.00;;;;;;5049564;28;20487;-41
2021/01/08 02:21:12;;;;;;;11.53;7.63;;;8.10;56.00;;;;;;5051193;28;20438;-41
2021/01/08 02:23:52;;;;;;;10.23;7.70;;;8.10;55.90;;;;;;5050003;28;20423;-41
2021/01/08 02:26:19;;;;;;;12.80;8.43;;;8.10;55.90;;;;;;5045953;28;20788;-41
2021/01/08 02:28:46;;;;;;;9.33;7.90;;;8.10;55.90;;;;;;5049938;28;20468;-41
2021/01/08 02:31:12;;;;;;;9.57;7.57;;;8.10;56.00;;;;;;5050372;28;20477;-41
2021/01/08 02:33:39;;;;;;;12.50;8.60;;;8.10;56.20;;;;;;5050123;28;20469;-41
2021/01/08 02:36:05;;;;;;;10.13;6.40;;;8.10;56.30;;;;;;5049890;28;20435;-41
2021/01/08 02:38:32;;;;;;;10.50;7.50;;;8.10;56.40;;;;;;5048373;28;20494;-41
2021/01/08 02:40:59;;;;;;;12.10;8.40;;;8.00;56.40;;;;;;5050471;28;20466;-41
2021/01/08 02:43:26;;;;;;;8.03;6.63;;;8.10;56.50;;;;;;5049087;28;20772;-42
2021/01/08 02:45:52;;;;;;;9.10;6.80;;;8.10;56.50;;;;;;5050246;28;20451;-41
2021/01/08 02:48:19;;;;;;;9.40;7.30;;;8.10;56.20;;;;;;5050216;28;20465;-41
2021/01/08 02:50:45;;;;;;;9.17;6.50;;;8.10;55.70;;;;;;5046986;28;20431;-41
2021/01/08 02:53:19;;;;;;;8.17;6.57;;;8.10;55.70;;;;;;5049784;28;20435;-41
2021/01/08 02:55:51;;;;;;;10.20;7.87;;;8.10;55.80;;;;;;5052730;28;20457;-41
2021/01/08 02:58:19;;;;;;;9.30;7.37;;;8.10;56.00;;;;;;5049477;28;20482;-41
2021/01/08 03:00:45;;;;;;;10.60;7.63;;;8.10;56.00;;;;;;5050328;28;20474;-41
2021/01/08 03:03:11;;;;;;;10.40;7.90;;;8.00;56.00;;;;;;5048313;28;21069;-41
2021/01/08 03:05:37;;;;;;;7.77;6.70;;;8.00;56.20;;;;;;5048683;28;20199;-41
2021/01/08 03:08:03;;;;;;;10.60;7.13;;;8.10;56.40;;;;;;5049771;28;20442;-41
2021/01/08 03:10:28;;;;;;;10.47;6.73;;;8.10;56.40;;;;;;5053432;28;20516;-41
2021/01/08 03:13:03;;;;;;;9.10;6.33;;;8.10;56.30;;;;;;5053452;28;20937;-41
2021/01/08 03:15:28;;;;;;;10.00;7.27;;;8.00;56.00;;;;;;5053639;28;20197;-41
2021/01/08 03:17:55;;;;;;;7.73;6.53;;;8.00;56.20;;;;;;5054311;28;20980;-41
2021/01/08 03:20:20;;;;;;;8.27;6.00;;;8.00;56.30;;;;;;5054316;28;20192;-41
2021/01/08 03:22:46;;;;;;;8.57;7.67;;;8.00;56.50;;;;;;5052787;28;20435;-41
2021/01/08 03:25:12;;;;;;;7.90;5.67;;;8.00;56.40;;;;;;5053791;28;20192;-41
2021/01/08 03:27:37;;;;;;;7.83;5.60;;;8.00;56.30;;;;;;5053637;28;20315;-41
2021/01/08 03:30:05;;;;;;;7.13;6.33;;;8.00;56.40;;;;;;5052791;28;20274;-41
2021/01/08 03:32:32;;;;;;;8.80;6.10;;;8.00;56.50;;;;;;5062315;28;20454;-41
2021/01/08 03:34:57;;;;;;;7.33;5.63;;;8.00;56.20;;;;;;5054508;28;20441;-41
2021/01/08 03:37:23;;;;;;;8.47;6.33;;;8.00;56.20;;;;;;5053508;28;20478;-41
2021/01/08 03:39:48;;;;;;;7.40;6.07;;;8.00;56.30;;;;;;5054501;28;20235;-41
2021/01/08 03:42:14;;;;;;;8.67;5.97;;;8.00;56.10;;;;;;5052877;28;20243;-41
2021/01/08 03:44:40;;;;;;;8.60;6.10;;;7.90;56.00;;;;;;5052617;28;20219;-41
2021/01/08 03:47:05;;;;;;;9.20;6.47;;;7.90;56.10;;;;;;5052836;28;20204;-41
2021/01/08 03:49:37;;;;;;;9.10;7.23;;;7.90;56.10;;;;;;5053296;28;20193;-41
2021/01/08 03:52:04;;;;;;;11.00;7.60;;;7.90;56.20;;;;;;5051509;28;20214;-41
2021/01/08 03:54:29;;;;;;;8.40;6.53;;;7.90;56.20;;;;;;5053505;28;20435;-41
2021/01/08 03:56:55;;;;;;;11.30;8.20;;;7.90;56.30;;;;;;5053182;28;20953;-41
2021/01/08 03:59:20;;;;;;;10.40;7.30;;;7.90;56.30;;;;;;5052907;28;20200;-41
2021/01/08 04:01:46;;;;;;;8.13;7.23;;;7.90;56.40;;;;;;5051697;28;20636;-41
2021/01/08 04:04:11;;;;;;;11.73;8.10;;;7.90;56.50;;;;;;5047462;28;20630;-41
2021/01/08 04:06:37;;;;;;;8.87;6.60;;;7.90;56.60;;;;;;5053326;28;20284;-41
2021/01/08 04:09:03;;;;;;;11.80;7.97;;;7.90;56.70;;;;;;5052669;28;20217;-41
2021/01/08 04:11:28;;;;;;;11.40;7.40;;;7.80;56.50;;;;;;5052803;28;20307;-41
2021/01/08 04:13:54;;;;;;;9.90;8.30;;;7.80;56.70;;;;;;5052387;28;20238;-41
2021/01/08 04:16:19;;;;;;;9.97;7.50;;;7.80;56.70;;;;;;5053018;28;20631;-41
2021/01/08 04:18:45;;;;;;;10.07;7.67;;;7.90;56.70;;;;;;5052591;28;20302;-41
2021/01/08 04:21:11;;;;;;;10.43;7.60;;;7.90;56.50;;;;;;5052262;28;20227;-41
2021/01/08 04:23:38;;;;;;;11.87;8.47;;;7.90;56.20;;;;;;5052747;28;20196;-41
2021/01/08 04:26:06;;;;;;;12.47;9.60;;;7.90;56.80;;;;;;5052860;28;20180;-41
2021/01/08 04:28:32;;;;;;;11.90;9.20;;;7.80;56.30;;;;;;5049197;28;20439;-41
2021/01/08 04:30:57;;;;;;;11.50;8.00;;;7.60;56.40;;;;;;5053362;28;20423;-41
2021/01/08 04:33:23;;;;;;;10.87;8.10;;;7.60;56.60;;;;;;5052141;28;20192;-41
2021/01/08 04:35:49;;;;;;;11.80;8.20;;;7.70;56.50;;;;;;5052682;28;20192;-41
2021/01/08 04:38:14;;;;;;;11.70;7.87;;;7.80;56.50;;;;;;5052341;28;20228;-41
2021/01/08 04:40:40;;;;;;;11.20;7.90;;;7.80;56.40;;;;;;5051942;28;20228;-41
2021/01/08 04:43:05;;;;;;;12.20;7.30;;;7.80;56.20;;;;;;5048688;28;20538;-41
2021/01/08 04:45:31;;;;;;;10.33;7.20;;;7.80;56.00;;;;;;5052045;28;20203;-41
2021/01/08 04:47:59;;;;;;;10.47;7.40;;;7.80;55.70;;;;;;5052465;28;20200;-41
2021/01/08 04:50:26;;;;;;;10.00;7.33;;;7.80;55.70;;;;;;5051958;28;20215;-41
2021/01/08 04:52:52;;;;;;;9.70;7.70;;;7.80;55.60;;;;;;5048843;28;20439;-41
2021/01/08 04:55:19;;;;;;;10.03;7.73;;;7.80;55.40;;;;;;5050846;28;20439;-41
2021/01/08 04:57:47;;;;;;;9.13;7.60;;;7.80;55.40;;;;;;5050608;28;20486;-41
2021/01/08 05:00:14;;;;;;;10.40;8.60;;;7.80;55.40;;;;;;5052570;28;20451;-41
2021/01/08 05:02:40;;;;;;;11.53;8.70;;;7.70;55.30;;;;;;5050947;28;20435;-41
2021/01/08 05:05:07;;;;;;;12.70;8.27;;;7.60;55.60;;;;;;5052201;28;20447;-41
2021/01/08 05:07:32;;;;;;;10.67;7.57;;;7.50;55.70;;;;;;5052247;28;20434;-41
2021/01/08 05:10:01;;;;;;;12.40;8.53;;;7.60;56.10;;;;;;5051822;28;20439;-41
2021/01/08 05:12:43;;;;;;;10.17;7.30;;;7.70;56.00;;;;;;5050256;28;20612;-41
2021/01/08 05:15:13;;;;;;;10.50;7.90;;;7.60;55.80;;;;;;5050910;28;20431;-41
2021/01/08 05:17:40;;;;;;;10.60;7.90;;;7.60;55.70;;;;;;5051340;28;20482;-41
2021/01/08 05:20:07;;;;;;;10.40;7.60;;;7.70;55.70;;;;;;5051951;28;20828;-41
2021/01/08 05:22:33;;;;;;;10.47;7.57;;;7.70;55.50;;;;;;5051412;28;20431;-41
2021/01/08 05:25:08;;;;;;;9.07;7.13;;;7.80;55.60;;;;;;5049564;28;20427;-41
2021/01/08 05:27:34;;;;;;;9.27;6.63;;;7.80;55.60;;;;;;5050858;28;20488;-41
2021/01/08 05:30:16;;;;;;;12.67;8.13;;;7.90;55.50;;;;;;5051752;28;21029;-41
2021/01/08 05:32:41;;;;;;;11.87;7.37;;;7.90;55.20;;;;;;5050143;28;20196;-41
2021/01/08 05:35:11;;;;;;;7.70;6.20;;;7.90;54.80;;;;;;5051676;28;20442;-41
2021/01/08 05:37:41;;;;;;;10.50;7.23;;;7.90;54.80;;;;;;5051391;28;20617;-41
2021/01/08 05:40:08;;;;;;;7.43;6.43;;;7.90;54.80;;;;;;5050903;28;20804;-41
2021/01/08 05:42:33;;;;;;;10.80;7.60;;;7.90;54.60;;;;;;5050646;28;20898;-41
2021/01/08 05:44:59;;;;;;;7.90;6.07;;;7.90;54.50;;;;;;5051279;28;20442;-41
2021/01/08 05:47:26;;;;;;;7.80;6.50;;;8.00;54.50;;;;;;5050626;28;20628;-41
2021/01/08 05:49:56;;;;;;;8.53;6.17;;;8.00;54.50;;;;;;5051820;28;20211;-41
2021/01/08 05:52:24;;;;;;;9.97;6.93;;;8.00;54.50;;;;;;5048994;28;20521;-41
2021/01/08 05:54:50;;;;;;;8.30;6.77;;;8.00;54.80;;;;;;5051504;28;20824;-41
2021/01/08 05:57:15;;;;;;;9.40;6.97;;;8.00;54.50;;;;;;5050864;28;20500;-41
2021/01/08 05:59:44;;;;;;;10.07;6.50;;;8.00;54.50;;;;;;5050931;28;20239;-41
2021/01/08 06:02:11;;;;;;;9.00;6.90;;;8.00;54.70;;;;;;5050386;28;20981;-41
2021/01/08 06:04:39;;;;;;;8.97;6.60;;;8.00;54.70;;;;;;5051083;28;20438;-42
2021/01/08 06:07:18;;;;;;;7.20;5.93;;;7.90;54.90;;;;;;5050475;28;20478;-41
2021/01/08 06:09:49;;;;;;;8.53;6.30;;;7.80;54.90;;;;;;5051136;28;20443;-41
2021/01/08 06:12:16;;;;;;;8.63;6.20;;;7.80;55.30;;;;;;5050283;28;21149;-41
2021/01/08 06:14:42;;;;;;;7.33;5.50;;;7.80;55.40;;;;;;5050982;28;20423;-41
2021/01/08 06:17:08;;;;;;;8.17;6.30;;;7.80;55.40;;;;;;5049939;28;20954;-42
2021/01/08 06:19:34;;;;;;;9.07;6.00;;;7.90;56.20;;;;;;5049248;28;20423;-41
2021/01/08 06:22:00;;;;;;;8.03;6.20;;;8.10;57.40;;;;;;5048897;28;20536;-41
2021/01/08 06:24:28;;;;;;;8.50;5.93;;;8.30;57.60;;;;;;5050845;28;20789;-41
2021/01/08 06:26:54;;;;;;;8.20;5.70;;;8.60;56.50;;;;;;5049934;28;20430;-41
2021/01/08 06:29:21;;;;;;;8.73;6.50;;;8.90;55.90;;;;;;5050556;28;20443;-42
2021/01/08 06:31:56;;;;;;;7.50;6.07;;;9.00;54.90;;;;;;5049996;28;20431;-42
2021/01/08 06:34:24;;;;;;;10.60;6.17;;;9.20;54.00;;;;;;5050449;28;20430;-41
2021/01/08 06:37:22;;;;;;;10.33;5.73;;;9.20;53.10;;;;;;5050656;28;20450;-41
2021/01/08 06:39:48;;;;;;;9.30;6.30;;;9.10;52.70;;;;;;5049649;28;20504;-41
2021/01/08 06:42:28;;;;;;;7.60;5.30;;;9.30;52.70;;;;;;5049138;28;20470;-41
2021/01/08 06:44:55;;;;;;;6.60;5.47;;;9.30;52.80;;;;;;5049682;28;20207;-41
2021/01/08 06:47:21;;;;;;;8.67;6.33;;;9.40;52.30;;;;;;5043363;28;20439;-42
2021/01/08 06:49:51;;;;;;;8.30;5.83;;;9.40;52.20;;;;;;5049898;28;20435;-41
2021/01/08 06:52:17;;;;;;;12.77;6.40;;;9.50;52.30;;;;;;5050954;28;20427;-41
2021/01/08 06:54:43;;;;;;;7.87;5.90;;;9.50;51.90;;;;;;5049896;28;20443;-42
2021/01/08 06:57:33;;;;;;;6.20;5.20;;;9.60;51.80;;;;;;5050310;28;20470;-41
2021/01/08 07:00:04;;;;;;;8.20;6.37;;;9.60;51.50;;;;;;5053914;28;20466;-41
2021/01/08 07:02:31;;;;;;;7.50;6.03;;;9.60;51.50;;;;;;5049293;28;21147;-41
2021/01/08 07:04:59;;;;;;;7.07;5.40;;;9.50;51.10;;;;;;5049921;28;20419;-41
2021/01/08 07:07:26;;;;;;;8.03;6.33;;;9.40;50.90;;;;;;5049493;28;20462;-42
2021/01/08 07:09:54;;;;;;;8.37;6.43;;;9.40;51.10;;;;;;5050041;28;20518;-41
2021/01/08 07:12:23;;;;;;;7.87;6.30;;;9.50;51.50;;;;;;5039868;28;20443;-42
2021/01/08 07:14:49;;;;;;;7.27;5.90;;;9.60;51.70;;;;;;5048407;28;20443;-41
2021/01/08 07:17:15;;;;;;;9.53;5.20;;;9.70;51.50;;;;;;5049182;28;20465;-41
2021/01/08 07:19:42;;;;;;;7.97;6.20;;;9.80;51.20;;;;;;5049340;28;20439;-41
2021/01/08 07:22:12;;;;;;;7.00;5.43;;;9.80;50.80;;;;;;5049001;28;20224;-41
2021/01/08 07:24:38;;;;;;;6.53;5.53;;;9.90;50.90;;;;;;5048935;28;20480;-42
2021/01/08 07:27:24;;;;;;;7.10;5.53;;;9.70;50.80;;;;;;5049508;28;20443;-41
2021/01/08 07:30:02;;;;;;;10.90;4.90;;;9.60;50.50;;;;;;5050650;28;20521;-42
2021/01/08 07:32:45;;;;;;;6.47;5.37;;;9.60;50.60;;;;;;5048971;28;20443;-43
2021/01/08 07:35:20;;;;;;;7.23;5.37;;;9.60;50.60;;;;;;5049481;28;20458;-42
2021/01/08 07:38:01;;;;;;;8.37;5.80;;;9.50;50.60;;;;;;5039764;28;20480;-41
2021/01/08 07:40:31;;;;;;;6.57;5.10;;;9.50;50.80;;;;;;5043565;28;20501;-42
2021/01/08 07:43:07;;;;;;;6.67;4.90;;;9.50;51.00;;;;;;5046774;28;20427;-42
2021/01/08 07:45:56;;;;;;;6.23;5.63;;;9.50;51.10;;;;;;5045218;28;20531;-42
2021/01/08 07:48:38;;;;;;;6.50;5.53;;;9.40;51.20;;;;;;5040279;28;20923;-41
2021/01/08 07:51:08;;;;;;;5.77;4.57;;;9.40;51.20;;;;;;5047004;28;20443;-41
2021/01/08 07:53:43;;;;;;;6.60;5.63;;;9.30;51.10;;;;;;5044962;28;20443;-41
2021/01/08 07:56:20;;;;;;;6.00;4.43;;;9.00;51.30;;;;;;5044035;28;20441;-41
2021/01/08 07:58:58;;;;;;;7.07;5.27;;;8.90;51.40;;;;;;5049218;28;20506;-41
2021/01/08 08:01:24;;;;;;;10.50;5.00;;;8.90;51.60;;;;;;5047526;28;20435;-41
2021/01/08 08:04:00;;;;;;;6.27;5.47;;;8.60;51.80;;;;;;5049131;28;20423;-41
2021/01/08 08:06:28;;;;;;;7.13;5.10;;;8.50;52.30;;;;;;5048914;28;20196;-41
2021/01/08 08:08:57;;;;;;;6.30;4.80;;;8.70;52.50;;;;;;5049517;28;22034;-41
2021/01/08 08:11:27;;;;;;;6.67;5.00;;;8.80;52.40;;;;;;5050335;28;20434;-41
2021/01/08 08:13:56;;;;;;;6.47;5.03;;;8.90;52.10;;;;;;5051574;28;20459;-41
2021/01/08 08:16:38;;;;;;;6.00;4.43;;;9.00;52.00;;;;;;5051142;28;20527;-41
2021/01/08 08:19:06;;;;;;;5.33;4.37;;;8.90;51.80;;;;;;5043123;28;20514;-41
2021/01/08 08:21:31;;;;;;;6.93;4.20;;;8.70;52.20;;;;;;5046605;28;20478;-41
2021/01/08 08:24:02;;;;;;;5.33;4.20;;;8.40;52.30;;;;;;5050911;28;20470;-41
2021/01/08 08:26:29;;;;;;;6.20;4.83;;;8.40;52.80;;;;;;5056787;28;20185;-41
2021/01/08 08:29:04;;;;;;;6.47;4.93;;;8.40;52.80;;;;;;5050053;28;20997;-41
2021/01/08 08:31:38;;;;;;;5.77;4.43;;;8.30;52.80;;;;;;5052394;28;20457;-41
2021/01/08 08:34:05;;;;;;;6.13;4.80;;;8.40;52.90;;;;;;5050974;28;20427;-41
2021/01/08 08:36:31;;;;;;;8.77;5.00;;;8.50;53.00;;;;;;5045837;28;20447;-41
2021/01/08 08:39:08;;;;;;;5.40;4.40;;;8.60;52.90;;;;;;5049608;28;20513;-41
2021/01/08 08:41:39;;;;;;;5.60;4.40;;;8.50;52.80;;;;;;5043158;28;20503;-41
2021/01/08 08:44:05;;;;;;;7.17;4.43;;;8.70;52.70;;;;;;5052075;28;20585;-41
2021/01/08 08:46:51;;;;;;;6.13;5.37;;;8.60;52.60;;;;;;5051785;28;20525;-41
2021/01/08 08:49:24;;;;;;;5.60;4.50;;;8.80;53.30;;;;;;5046851;28;20195;-41
2021/01/08 08:51:53;;;;;;;6.77;4.80;;;8.90;52.80;;;;;;5046051;28;20515;-41
2021/01/08 08:54:21;;;;;;;5.67;4.00;;;8.70;52.50;;;;;;5048777;28;20431;-41
2021/01/08 08:56:53;;;;;;;6.20;4.00;;;8.80;52.80;;;;;;5047944;28;20783;-42
2021/01/08 08:59:40;;;;;;;5.33;4.00;;;8.90;52.70;;;;;;5049390;28;20431;-41
2021/01/08 09:02:07;;;;;;;3.90;3.50;;;8.90;52.50;;;;;;5051695;28;20458;-41
2021/01/08 09:04:33;;;;;;;6.23;4.10;;;8.80;52.50;;;;;;5052463;28;20790;-41
2021/01/08 09:07:02;;;;;;;4.50;3.80;;;8.80;52.80;;;;;;5051315;28;20443;-41
2021/01/08 09:09:30;;;;;;;5.10;3.90;;;8.80;53.20;;;;;;5050230;28;20216;-41
2021/01/08 09:12:25;;;;;;;6.33;5.60;;;8.80;53.20;;;;;;5050929;28;20435;-41
2021/01/08 09:14:58;;;;;;;7.53;6.10;;;8.80;53.50;;;;;;5052837;28;20455;-41
2021/01/08 09:17:32;;;;;;;8.30;6.83;;;8.80;53.60;;;;;;5051029;28;20951;-41
2021/01/08 09:20:00;;;;;;;6.90;5.23;;;8.70;54.00;;;;;;5051471;28;20432;-42
2021/01/08 09:22:29;;;;;;;5.67;5.00;;;8.60;54.20;;;;;;5051439;28;20454;-41
2021/01/08 09:24:58;;;;;;;5.07;4.50;;;8.60;54.30;;;;;;5051358;28;20518;-41
2021/01/08 09:27:24;;;;;;;7.17;4.70;;;8.70;54.60;;;;;;5051512;28;20427;-41
2021/01/08 09:29:50;;;;;;;5.53;4.13;;;8.80;54.40;;;;;;5052231;28;20453;-41
2021/01/08 09:32:32;;;;;;;5.97;4.60;;;8.90;54.00;;;;;;5050453;28;20435;-41
2021/01/08 09:35:04;;;;;;;5.93;4.20;;;9.20;53.90;;;;;;5050818;28;20196;-41
2021/01/08 09:37:40;;;;;;;7.13;4.20;;;9.40;53.60;;;;;;5047079;28;21065;-41
2021/01/08 09:40:15;;;;;;;5.10;4.50;;;9.50;53.20;;;;;;5048884;28;20435;-41
2021/01/08 09:42:41;;;;;;;5.60;4.20;;;9.70;53.00;;;;;;5050225;28;20775;-41
2021/01/08 09:45:26;;;;;;;6.40;4.57;;;9.70;52.70;;;;;;5050949;28;20516;-41
2021/01/08 09:47:53;;;;;;;5.37;4.40;;;9.80;52.40;;;;;;5041331;28;20450;-41
2021/01/08 09:50:26;;;;;;;5.70;4.30;;;9.80;52.10;;;;;;5047814;28;20434;-41
2021/01/08 09:52:55;;;;;;;5.63;4.80;;;9.80;52.70;;;;;;5043901;28;20465;-41
2021/01/08 09:55:25;;;;;;;5.87;3.93;;;9.70;51.90;;;;;;5051139;28;20530;-41
2021/01/08 09:57:56;;;;;;;4.73;3.30;;;9.50;51.70;;;;;;5048859;28;20589;-41
2021/01/08 10:00:31;;;;;;;5.03;3.67;;;9.30;51.90;;;;;;5046570;28;20930;-41
2021/01/08 10:02:57;;;;;;;3.20;2.90;;;9.20;52.30;;;;;;5047488;28;20430;-41
2021/01/08 10:05:23;;;;;;;4.00;3.33;;;9.20;52.60;;;;;;5046326;28;20433;-41
2021/01/08 10:07:49;;;;;;;3.23;2.93;;;9.10;52.90;;;;;;5049321;28;20189;-40
2021/01/08 10:10:17;;;;;;;3.90;2.80;;;8.90;52.80;;;;;;5047039;28;20826;-41
2021/01/08 10:12:47;;;;;;;4.13;3.40;;;8.90;53.30;;;;;;5048810;28;20435;-64
2021/01/08 10:15:14;;;;;;;4.47;4.07;;;8.80;53.30;;;;;;5045986;28;20783;-40
2021/01/08 10:17:50;;;;;;;5.73;3.83;;;8.60;53.70;;;;;;5049911;28;20589;-40
2021/01/08 10:20:18;;;;;;;3.43;3.13;;;8.70;53.80;;;;;;5043774;28;21005;-40
2021/01/08 10:22:53;;;;;;;5.13;2.90;;;8.80;53.80;;;;;;5047588;28;20542;-40
2021/01/08 10:25:26;;;;;;;4.07;3.20;;;8.70;54.00;;;;;;5050204;28;20508;-40
2021/01/08 10:27:52;;;;;;;3.53;3.23;;;8.80;54.10;;;;;;5046309;28;20439;-40
2021/01/08 10:30:18;;;;;;;6.37;4.07;;;8.50;54.10;;;;;;5047809;28;20488;-40
2021/01/08 10:32:47;;;;;;;3.33;2.97;;;8.50;54.50;;;;;;5046904;28;20435;-40
2021/01/08 10:35:14;;;;;;;3.50;2.40;;;8.50;54.60;;;;;;5045251;28;20450;-40
2021/01/08 10:37:40;;;;;;;4.43;3.80;;;8.40;54.30;;;;;;5047669;28;20530;-40
2021/01/08 10:40:06;;;;;;;4.00;3.60;;;8.40;54.40;;;;;;5048683;28;20443;-40
2021/01/08 10:42:32;;;;;;;5.23;3.90;;;8.40;54.70;;;;;;5048154;28;20713;-41
2021/01/08 10:44:58;;;;;;;7.00;3.57;;;8.50;54.90;;;;;;5047894;28;20514;-40
2021/01/08 10:47:23;;;;;;;5.47;3.70;;;8.60;54.80;;;;;;5045937;28;20310;-40
2021/01/08 10:49:49;;;;;;;6.23;3.90;;;8.70;54.70;;;;;;5039531;28;20659;-41
2021/01/08 10:52:14;;;;;;;6.07;4.03;;;8.70;54.70;;;;;;5048886;28;20196;-40
2021/01/08 10:54:40;;;;;;;5.30;3.37;;;8.50;55.20;;;;;;5047606;28;20593;-41
2021/01/08 10:57:06;;;;;;;4.30;3.50;;;8.50;55.50;;;;;;5048532;28;22035;-40
2021/01/08 10:59:31;;;;;;;3.90;3.37;;;8.40;55.70;;;;;;5048100;28;20209;-39
2021/01/08 11:01:57;;;;;;;4.40;3.90;;;8.40;56.00;;;;;;5048271;28;20188;-39
2021/01/08 11:04:22;;;;;;;5.80;4.23;;;8.30;56.10;;;;;;5047981;28;20265;-39
2021/01/08 11:06:54;;;;;;;6.47;5.30;;;8.40;56.50;;;;;;5049445;28;20550;-39
2021/01/08 11:09:20;;;;;;;5.20;4.70;;;8.50;56.80;;;;;;5047086;28;20557;-39
2021/01/08 11:11:45;;;;;;;8.27;4.97;;;8.50;56.90;;;;;;5048144;28;20433;-39
2021/01/08 11:14:11;;;;;;;4.90;4.17;;;8.50;56.80;;;;;;5052370;28;20188;-39
2021/01/08 11:16:36;;;;;;;5.40;4.50;;;8.50;56.60;;;;;;5047495;28;20185;-39
2021/01/08 11:19:02;;;;;;;5.77;4.63;;;8.40;56.70;;;;;;5046554;28;20228;-39
2021/01/08 11:21:28;;;;;;;5.20;4.30;;;8.40;57.00;;;;;;5052043;28;20197;-39
2021/01/08 11:23:53;;;;;;;5.47;4.80;;;8.20;57.20;;;;;;5047691;28;20238;-38
2021/01/08 11:26:26;;;;;;;7.97;6.90;;;8.20;57.60;;;;;;5049633;28;20204;-41
2021/01/08 11:28:52;;;;;;;6.33;5.27;;;8.30;57.50;;;;;;5046500;28;20199;-41
2021/01/08 11:31:18;;;;;;;8.43;5.20;;;8.30;57.80;;;;;;5049218;28;20423;-40
2021/01/08 11:33:47;;;;;;;5.90;5.20;;;8.30;57.70;;;;;;5052904;28;20465;-39
2021/01/08 11:36:17;;;;;;;7.00;5.60;;;8.30;57.60;;;;;;5052670;28;20221;-41
2021/01/08 11:38:42;;;;;;;5.07;4.33;;;8.40;57.50;;;;;;5043462;28;20521;-41
2021/01/08 11:41:09;;;;;;;6.80;5.03;;;8.30;57.50;;;;;;5050043;28;20475;-41
2021/01/08 11:43:35;;;;;;;6.57;5.03;;;8.30;57.40;;;;;;5052095;28;20235;-41
2021/01/08 11:46:01;;;;;;;6.03;4.87;;;8.30;57.30;;;;;;5049078;28;20462;-41
2021/01/08 11:48:26;;;;;;;5.13;4.43;;;8.30;57.30;;;;;;5050177;28;20275;-41
2021/01/08 11:50:52;;;;;;;4.83;4.30;;;8.30;57.00;;;;;;5053109;28;20689;-41
2021/01/08 11:53:18;;;;;;;7.90;4.50;;;8.20;56.40;;;;;;5054199;28;20218;-41
2021/01/08 11:55:44;;;;;;;7.30;4.97;;;7.90;56.60;;;;;;5051170;28;20184;-41
2021/01/08 11:58:10;;;;;;;6.37;4.50;;;7.80;57.70;;;;;;5050689;28;20578;-41
2021/01/08 12:00:35;;;;;;;5.30;3.93;;;7.90;57.50;;;;;;5053914;28;20443;-41
2021/01/08 12:03:01;;;;;;;6.43;4.87;;;8.00;57.20;;;;;;5051576;28;20200;-41
2021/01/08 12:05:26;;;;;;;7.00;5.33;;;8.00;56.90;;;;;;5055604;28;20185;-41
2021/01/08 12:07:52;;;;;;;7.10;5.07;;;8.00;56.80;;;;;;5051057;28;20196;-41
2021/01/08 12:10:18;;;;;;;6.30;4.80;;;8.00;56.60;;;;;;5055673;28;20257;-41
2021/01/08 12:12:47;;;;;;;4.47;4.07;;;7.90;56.10;;;;;;5054208;28;20201;-41
2021/01/08 12:15:12;;;;;;;5.30;4.20;;;7.90;56.20;;;;;;5051850;28;20235;-41
2021/01/08 12:17:42;;;;;;;6.13;4.00;;;8.00;56.00;;;;;;5054863;28;20498;-41
2021/01/08 12:20:09;;;;;;;5.43;4.57;;;8.00;55.50;;;;;;5054760;28;20593;-41
2021/01/08 12:22:35;;;;;;;6.50;4.93;;;8.00;55.60;;;;;;5051278;28;20469;-41
2021/01/08 12:25:01;;;;;;;5.00;4.47;;;8.10;55.60;;;;;;5056288;28;20426;-41
2021/01/08 12:27:26;;;;;;;6.73;4.77;;;8.20;55.40;;;;;;5051027;28;20439;-41
2021/01/08 12:29:52;;;;;;;5.83;5.23;;;8.30;55.10;;;;;;5053515;28;20678;-41
2021/01/08 12:32:17;;;;;;;8.80;5.13;;;8.30;54.80;;;;;;5049533;28;20184;-41
2021/01/08 12:34:43;;;;;;;5.97;4.50;;;8.30;54.70;;;;;;5053109;28;20729;-41
2021/01/08 12:37:09;;;;;;;4.87;4.20;;;8.20;54.30;;;;;;5050544;28;20219;-41
2021/01/08 12:39:34;;;;;;;6.17;4.70;;;8.00;54.00;;;;;;5050563;28;20225;-41
2021/01/08 12:42:04;;;;;;;6.20;4.93;;;7.90;54.60;;;;;;5050412;28;20311;-41
2021/01/08 12:44:30;;;;;;;6.70;4.40;;;7.80;54.70;;;;;;5052243;28;20563;-41
2021/01/08 12:46:59;;;;;;;4.87;4.07;;;7.70;54.80;;;;;;5049974;28;20777;-41
2021/01/08 12:49:27;;;;;;;4.33;3.27;;;7.70;54.60;;;;;;5051838;28;20423;-41
2021/01/08 12:51:53;;;;;;;4.60;3.80;;;7.60;54.50;;;;;;5050945;28;20974;-42
2021/01/08 12:54:19;;;;;;;4.50;3.73;;;7.50;54.60;;;;;;5052176;28;20423;-41
2021/01/08 12:56:44;;;;;;;4.17;3.77;;;7.40;54.70;;;;;;5051852;28;20192;-41
2021/01/08 12:59:10;;;;;;;4.63;3.50;;;7.40;54.80;;;;;;5053349;28;20208;-41
2021/01/08 13:01:36;;;;;;;4.30;3.77;;;7.30;54.70;;;;;;5050893;28;20231;-41